WEATHER DATA

TODAY
Time Temp. Dewp. Hum. Wind dir Wind speed Wind gust Bar. 1h Prec. 24h Prec.
00:03 1.6 -11.2 34 32 1.9 2.5 1018.2 0.0000 0.0000
00:12 1.7 -11.5 33 39 1.4 2.2 1018.2 0.0000 0.0000
00:22 2 -11.2 33 39 1.4 2.2 1018.4 0.0000 0.0000
00:33 2 -10.9 34 46 1.4 2.2 1018.4 0.0000 0.0000
00:43 2.2 -11.4 32 35 1.4 2.2 1018.5 0.0000 0.0000
00:53 2.2 -11.1 33 38 1.1 1.9 1018.5 0.0000 0.0000
01:02 2.1 -11.1 33 36 1.1 2.2 1018.5 0.0000 0.0000
01:23 1.9 -11.6 32 34 0.8 2.5 1018.5 0.0000 0.0000
01:33 1.8 -11.1 34 43 1.1 2.5 1018.4 0.0000 0.0000
01:43 1.5 -10.7 36 54 0.8 1.4 1018.5 0.0000 0.0000
01:53 1.3 -10.8 36 36 0.8 1.9 1018.5 0.0000 0.0000
02:03 1.1 -10.7 37 49 0.8 1.4 1018.4 0.0000 0.0000
02:13 0.9 -10.2 39 57 0.8 1.4 1018.4 0.0000 0.0000
02:24 0.7 -11.6 35 59 0.8 1.4 1018.4 0.0000 0.0000
02:34 0.7 -11.6 35 60 0.8 1.9 1018.4 0.0000 0.0000
02:43 0.6 -11.4 36 55 1.1 1.9 1018.1 0.0000 0.0000
02:54 0.4 -11.5 36 60 1.1 1.9 1018.1 0.0000 0.0000
03:04 0.4 -11.5 36 59 1.1 1.9 1018 0.0000 0.0000
03:14 0.4 -10.9 38 51 1.1 1.9 1017.9 0.0000 0.0000
03:24 0.3 -10.7 39 53 1.1 1.4 1017.8 0.0000 0.0000
03:34 0.5 -11.2 37 46 1.1 1.9 1017.7 0.0000 0.0000
03:44 0.8 -11.2 36 33 1.4 2.5 1017.5 0.0000 0.0000
03:54 0.9 -10.8 37 61 0.8 1.4 1017.4 0.0000 0.0000
04:04 1 -10.7 37 48 1.1 1.9 1017.4 0.0000 0.0000
04:15 1.1 -10.7 37 37 1.4 2.5 1017.3 0.0000 0.0000
04:24 1.1 -11 36 46 1.1 1.9 1017.3 0.0000 0.0000
04:34 1.3 -10.8 36 69 0.8 1.4 1017.3 0.0000 0.0000
04:45 1.3 -10.8 36 45 0.8 1.9 1017.2 0.0000 0.0000
04:55 1.3 -10.5 37 54 0.8 1.4 1017.2 0.0000 0.0000
05:05 1.2 -11.2 35 41 0.8 1.4 1017.2 0.0000 0.0000
05:15 1 -10.7 37 57 0.8 1.4 1017.2 0.0000 0.0000
05:25 0.9 -10.8 37 53 0.8 1.9 1017.1 0.0000 0.0000
05:35 0.9 -10.5 38 50 1.1 1.9 1017.1 0.0000 0.0000
05:45 0.8 -10.9 37 42 1.4 2.2 1017 0.0000 0.0000
05:56 0.9 -10.8 37 45 1.1 2.2 1017 0.0000 0.0000
06:05 1 -11.1 36 43 1.1 2.2 1016.8 0.0000 0.0000
06:15 1 -10.4 38 46 1.1 1.9 1016.8 0.0000 0.0000
06:25 1 -10.7 37 46 1.1 2.2 1017 0.0000 0.0000
06:36 1 -10.7 37 37 1.1 2.5 1017 0.0000 0.0000
06:46 1 -10.4 38 52 1.1 1.9 1017 0.0000 0.0000
06:55 0.9 -10.5 38 52 1.1 2.2 1017 0.0000 0.0000
07:06 0.9 -10.5 38 39 1.4 2.5 1017 0.0000 0.0000
07:16 1 -10.2 39 53 1.1 1.9 1017 0.0000 0.0000
07:26 1.1 -10.4 38 45 1.1 2.2 1017.1 0.0000 0.0000
07:36 1.2 -10 39 56 1.1 1.9 1017.2 0.0000 0.0000
07:46 1.2 -9.7 40 53 1.1 1.9 1017.3 0.0000 0.0000
07:56 1.3 -10.2 38 53 0.8 1.9 1017.3 0.0000 0.0000
08:06 1.3 -9.9 39 41 1.1 1.9 1017.4 0.0000 0.0000
08:17 1.6 -9.7 39 40 0.8 1.4 1017.4 0.0000 0.0000
08:27 1.9 -9.7 38 35 0.8 1.4 1017.5 0.0000 0.0000
08:37 2.5 -10.2 35 12 0.8 1.4 1017.5 0.0000 0.0000
08:46 3.3 -10.5 32 246 0.8 1.4 1017.5 0.0000 0.0000
08:57 4.2 -9.5 33 233 0.8 2.2 1017.5 0.0000 0.0000
09:07 5 -9.2 32 270 0.3 1.1 1017.5 0.0000 0.0000
09:17 5.6 -8.7 32 270 0.3 1.1 1017.5 0.0000 0.0000
09:27 6.2 -9.4 29 245 0.8 1.4 1017.5 0.0000 0.0000
09:37 6.7 -9 29 223 1.1 1.9 1017.5 0.0000 0.0000
09:47 7.3 -8.9 28 237 0.8 1.9 1017.5 0.0000 0.0000
09:57 7.6 -8.7 28 230 0.8 1.9 1017.5 0.0000 0.0000
10:08 8.1 -9.1 26 225 1.1 2.5 1017.4 0.0000 0.0000
10:17 8.4 -8.5 27 251 0.8 1.4 1017.4 0.0000 0.0000
10:27 8.9 -8.1 27 203 0.8 2.2 1017.4 0.0000 0.0000
10:38 9.3 -8.2 26 188 1.4 3.3 1017.4 0.0000 0.0000
10:48 9.5 -8.5 25 206 1.1 2.2 1017.4 0.0000 0.0000
10:58 9.8 -8.7 24 209 1.1 2.2 1017.4 0.0000 0.0000
11:08 9.8 -8.7 24 208 1.4 3.1 1017.4 0.0000 0.0000
11:18 10 -8.6 24 202 1.4 3.1 1017.5 0.0000 0.0000
11:28 10.2 -8.4 24 211 1.1 2.5 1017.4 0.0000 0.0000
11:38 10.3 -8.8 23 240 1.1 3.1 1017.5 0.0000 0.0000
11:48 10.7 -8 24 234 0.3 1.4 1017.4 0.0000 0.0000
11:59 11.3 -8.1 23 211 1.4 2.5 1017.3 0.0000 0.0000
12:08 11.6 -6.9 25 207 1.4 2.5 1017.2 0.0000 0.0000
12:18 11.9 -7.6 23 226 1.4 2.5 1017.2 0.0000 0.0000
12:29 11.8 -6.7 25 221 1.4 3.1 1017 0.0000 0.0000
12:39 12.3 -6.8 24 214 1.4 3.3 1016.8 0.0000 0.0000
12:49 12.4 -5.8 26 233 1.1 2.5 1016.8 0.0000 0.0000
12:58 12.7 -4.7 28 234 1.1 2.5 1016.7 0.0000 0.0000
13:09 13.2 -4.8 27 220 1.4 4.2 1016.7 0.0000 0.0000
13:19 13.3 -4.3 28 240 1.1 2.2 1016.6 0.0000 0.0000
13:29 13.8 -4.3 27 200 1.4 3.3 1016.5 0.0000 0.0000
13:40 13.8 -4.3 27 228 1.1 3.1 1016.4 0.0000 0.0000
13:49 14 -3.3 29 258 0.8 2.2 1016.3 0.0000 0.0000
13:59 13.9 -3 30 230 1.4 3.3 1016.3 0.0000 0.0000
14:09 14.2 -2 32 233 1.1 2.2 1016.1 0.0000 0.0000
14:20 14.2 -1.6 33 226 1.4 3.6 1016 0.0000 0.0000
14:30 14.4 -1.5 33 247 1.4 3.3 1016 0.0000 0.0000
14:39 14.5 -1.8 32 225 1.4 3.3 1015.9 0.0000 0.0000
14:50 15 -1 33 253 1.1 2.2 1015.9 0.0000 0.0000
15:00 15.1 -1.3 32 216 1.4 3.1 1015.8 0.0000 0.0000
15:10 14.9 -1.1 33 219 1.4 3.1 1015.8 0.0000 0.0000
15:20 14.8 -1.5 32 248 1.4 3.1 1015.8 0.0000 0.0000
15:30 14.8 -1.2 33 225 1.1 3.1 1015.7 0.0000 0.0000
15:40 15 -1 33 214 1.4 2.5 1015.7 0.0000 0.0000
15:50 14.7 -1.2 33 216 1.4 3.1 1015.5 0.0000 0.0000
16:00 14.5 -1.8 32 217 1.9 3.6 1015.5 0.0000 0.0000
16:11 14.2 -1.6 33 228 1.4 3.3 1015.5 0.0000 0.0000
16:20 13.8 -1.6 34 226 1.4 2.2 1015.5 0.0000 0.0000
16:30 13.8 -1.6 34 235 1.4 2.5 1015.5 0.0000 0.0000
16:41 13.1 -1.8 35 226 1.1 2.2 1015.5 0.0000 0.0000
16:51 12.9 -1.6 36 225 1.1 2.5 1015.5 0.0000 0.0000
17:01 12.8 -1.7 36 225 1.1 2.2 1015.5 0.0000 0.0000
17:11 12.7 -1.4 37 250 0.8 1.4 1015.4 0.0000 0.0000
17:21 12.4 -1.3 38 303 0.3 1.1 1015.4 0.0000 0.0000
17:31 12 -1.6 38 336 0.3 1.1 1015.3 0.0000 0.0000
17:41 11 -2.1 39 21 0.8 1.1 1015.2 0.0000 0.0000
17:52 9.2 -2.7 42 29 1.1 2.2 1015.2 0.0000 0.0000
18:01 7.7 -3.1 45 27 1.1 1.9 1015.2 0.0000 0.0000
18:11 6.5 -3 49 32 0.8 1.4 1015.2 0.0000 0.0000
18:21 5.6 -3.1 52 39 0.8 1.1 1015.2 0.0000 0.0000
18:32 4.8 -3.3 54 39 0.8 1.1 1015.2 0.0000 0.0000

DAY STATISTIC

2019-02-19
TEMPERATURE
AVERAGE
6.5
HIGH
15.1
15:00
LOW
0.3
03:24
PRESSURE
AVERAGE
1017.0
HIGH
1018.5
00:43
LOW
1015.2
17:41
DEWPOINT
AVERAGE
-7.6
HIGH
-1.0
14:50
LOW
-11.6
01:23
HUMIDITY
AVERAGE
34
HIGH
54
18:32
LOW
23
11:38
WIND SPEED
AVERAGE
1.1
HIGH
1.9
00:03
WIND GUST
AVERAGE
2.2
HIGH
4.2
13:09
WIND DIRECTION
PREVAILING
NE
49.1%
N
1.8
NE
49.1
E
0.9
SE
0.0
S
3.6
SW
36.4
W
6.4
NW
1.8
PRECIPITATION
RAIN HOUR
0.0
RAIN DAY
0.0
TEMPERATURE (°C)
LOW
0.3
HIGH
15.1
AVERAGE
6.5
PRESSURE (hpa)
LOW
1015.2
HIGH
1018.5
AVERAGE
1017.0
DEVICE